Time;durP1;ratioP1;P1;durP2;ratioP2;P2;SDS_P1;SDS_P2;PMS_P1;PMS_P2;Temp;Humidity;BMP_temperature;BMP_pressure;BME280_temperature;BME280_humidity;BME280_pressure;Samples;Min_cycle;Max_cycle;Signal;HPM_P1;HPM_P2
2021/12/21 00:00:36;;;;;;;13.10;8.93;;;5.70;81.30;;;;;;4946679;29;20130;-74
2021/12/21 00:03:02;;;;;;;13.85;8.18;;;5.60;80.50;;;;;;4946174;28;20419;-74
2021/12/21 00:05:31;;;;;;;13.82;8.98;;;5.60;81.00;;;;;;4946666;29;20035;-75
2021/12/21 00:08:00;;;;;;;14.18;9.35;;;5.70;81.00;;;;;;4949937;28;20039;-75
2021/12/21 00:10:29;;;;;;;13.43;8.55;;;5.60;80.90;;;;;;4935546;28;20508;-75
2021/12/21 00:25:14;;;;;;;12.93;8.10;;;5.50;80.70;;;;;;4948781;28;20069;-75
2021/12/21 00:27:40;;;;;;;13.35;8.52;;;5.50;81.20;;;;;;4936342;28;20066;-75
2021/12/21 00:30:06;;;;;;;11.30;6.72;;;5.50;80.50;;;;;;4938310;28;20477;-75
2021/12/21 00:32:32;;;;;;;12.00;7.85;;;5.50;81.10;;;;;;4937912;28;20512;-75
2021/12/21 00:34:57;;;;;;;13.48;8.35;;;5.60;80.90;;;;;;4934734;28;20063;-75
2021/12/21 00:37:26;;;;;;;11.63;7.93;;;5.50;80.70;;;;;;4937362;28;20027;-75
2021/12/21 00:39:52;;;;;;;11.55;7.85;;;5.50;80.80;;;;;;4938588;29;20400;-75
2021/12/21 00:42:18;;;;;;;14.73;8.82;;;5.50;81.00;;;;;;4938080;28;20493;-75
2021/12/21 00:44:43;;;;;;;11.45;7.20;;;5.60;81.00;;;;;;4937749;28;20035;-75
2021/12/21 00:47:09;;;;;;;11.63;7.20;;;5.60;81.30;;;;;;4947681;28;20444;-75
2021/12/21 00:49:37;;;;;;;14.38;8.75;;;5.60;80.60;;;;;;4949165;28;20038;-74
2021/12/21 00:52:03;;;;;;;12.23;7.43;;;5.50;80.50;;;;;;4937694;29;20035;-75
2021/12/21 00:54:28;;;;;;;12.90;7.78;;;5.60;81.10;;;;;;4943204;28;20038;-75
2021/12/21 00:56:54;;;;;;;12.02;7.32;;;5.60;80.70;;;;;;4945347;28;20037;-75
2021/12/21 00:59:20;;;;;;;11.18;6.97;;;5.60;80.60;;;;;;4948212;29;20031;-75
2021/12/21 01:01:46;;;;;;;10.82;7.18;;;5.70;80.80;;;;;;4942732;28;20046;-75
2021/12/21 01:04:23;;;;;;;11.18;7.00;;;5.60;80.70;;;;;;4948449;28;20045;-75
2021/12/21 01:07:16;;;;;;;9.90;6.35;;;5.60;80.40;;;;;;4934308;28;20032;-74
2021/12/21 01:12:38;;;;;;;8.07;5.40;;;5.70;80.80;;;;;;4945489;28;20039;-74
2021/12/21 01:17:47;;;;;;;9.80;6.50;;;5.60;80.30;;;;;;4937419;28;20023;-74
2021/12/21 01:20:27;;;;;;;10.60;6.85;;;5.70;80.70;;;;;;4936068;28;20059;-74
2021/12/21 01:28:31;;;;;;;;;;;5.50;80.10;;;;;;4937565;28;20043;-74
2021/12/21 01:31:18;;;;;;;11.13;6.82;;;5.50;80.20;;;;;;4945532;29;19918;-74
2021/12/21 01:34:08;;;;;;;11.00;6.53;;;5.40;80.30;;;;;;4937477;28;20023;-74
2021/12/21 01:36:48;;;;;;;9.70;6.82;;;5.30;80.80;;;;;;4940859;28;20039;-74
2021/12/21 01:42:04;;;;;;;9.32;6.00;;;5.30;80.70;;;;;;4945448;28;20059;-74
2021/12/21 01:49:58;;;;;;;11.60;6.90;;;5.30;80.80;;;;;;4933704;28;20515;-74
2021/12/21 01:52:25;;;;;;;10.23;6.13;;;5.20;80.60;;;;;;4935894;28;20118;-73
2021/12/21 01:54:53;;;;;;;9.07;6.05;;;5.20;80.80;;;;;;4937525;28;20465;-74
2021/12/21 01:57:19;;;;;;;9.38;5.88;;;5.20;81.10;;;;;;4941066;28;20395;-74
2021/12/21 01:59:46;;;;;;;8.65;5.85;;;5.30;81.10;;;;;;4945105;28;20027;-73
2021/12/21 02:02:15;;;;;;;11.43;6.25;;;5.30;81.20;;;;;;4935234;28;20078;-73
2021/12/21 02:04:42;;;;;;;9.05;5.40;;;5.30;80.80;;;;;;4933799;28;20034;-73
2021/12/21 02:07:09;;;;;;;9.73;5.80;;;5.20;80.70;;;;;;4947152;29;20016;-73
2021/12/21 02:09:38;;;;;;;10.52;5.97;;;5.20;80.90;;;;;;4937739;28;20051;-74
2021/12/21 02:12:07;;;;;;;9.60;5.78;;;5.20;80.80;;;;;;4936828;28;20031;-73
2021/12/21 02:14:34;;;;;;;9.45;6.20;;;5.20;81.10;;;;;;4938574;28;20028;-73
2021/12/21 02:19:34;;;;;;;9.23;5.80;;;5.20;80.80;;;;;;4947499;28;20031;-73
2021/12/21 02:22:09;;;;;;;10.07;6.15;;;5.20;81.00;;;;;;4946334;29;20519;-73
2021/12/21 02:24:45;;;;;;;9.32;5.85;;;5.10;80.70;;;;;;4944480;29;20466;-73
2021/12/21 02:27:25;;;;;;;9.77;5.97;;;5.20;82.00;;;;;;4944498;28;20023;-72
2021/12/21 02:29:50;;;;;;;8.95;5.57;;;5.10;80.90;;;;;;4943977;28;20019;-73
2021/12/21 02:32:16;;;;;;;9.77;6.05;;;5.10;80.80;;;;;;4935307;28;20096;-74
2021/12/21 02:34:44;;;;;;;10.35;6.05;;;5.10;80.80;;;;;;4933638;28;20031;-74
2021/12/21 02:37:10;;;;;;;8.45;5.22;;;5.10;80.60;;;;;;4935915;28;20032;-73
2021/12/21 02:39:36;;;;;;;9.02;5.82;;;5.00;80.90;;;;;;4942749;28;20030;-73
2021/12/21 02:42:03;;;;;;;10.45;6.78;;;5.00;80.90;;;;;;4943058;28;20116;-73
2021/12/21 02:44:28;;;;;;;10.13;6.40;;;4.90;81.10;;;;;;4931033;28;20405;-73
2021/12/21 02:46:54;;;;;;;10.95;6.38;;;4.90;81.20;;;;;;4947490;28;20040;-72
2021/12/21 02:49:20;;;;;;;9.77;5.70;;;5.00;81.50;;;;;;4936146;29;20028;-74
2021/12/21 02:51:47;;;;;;;10.38;6.57;;;5.00;81.50;;;;;;4936337;28;20102;-73
2021/12/21 02:54:14;;;;;;;10.95;6.25;;;4.90;81.00;;;;;;4939664;28;20016;-74
2021/12/21 02:56:41;;;;;;;9.23;5.97;;;4.90;81.40;;;;;;4945380;28;20381;-73
2021/12/21 02:59:06;;;;;;;9.25;6.00;;;4.90;81.10;;;;;;4933765;28;20492;-73
2021/12/21 03:01:32;;;;;;;9.77;5.80;;;4.90;81.30;;;;;;4933894;29;20024;-73
2021/12/21 03:03:58;;;;;;;10.25;6.22;;;4.80;81.20;;;;;;4945885;28;20102;-73
2021/12/21 03:08:59;;;;;;;8.75;5.45;;;4.80;81.20;;;;;;4943860;28;20094;-73
2021/12/21 03:14:25;;;;;;;10.93;6.03;;;4.80;81.40;;;;;;4969890;28;20035;-73
2021/12/21 03:16:51;;;;;;;9.43;6.05;;;4.80;81.40;;;;;;4969774;28;20500;-73
2021/12/21 03:19:16;;;;;;;8.75;5.40;;;4.70;81.30;;;;;;4970605;28;20114;-73
2021/12/21 03:21:42;;;;;;;8.90;5.60;;;4.70;81.10;;;;;;4963199;28;20118;-73
2021/12/21 03:24:09;;;;;;;9.60;5.82;;;4.70;81.40;;;;;;4968286;28;20035;-73
2021/12/21 03:26:36;;;;;;;10.98;6.65;;;4.60;81.30;;;;;;4973216;28;20034;-73
2021/12/21 03:29:04;;;;;;;8.02;5.28;;;4.60;81.50;;;;;;4973737;28;20049;-73
2021/12/21 03:31:30;;;;;;;10.18;6.18;;;4.50;81.30;;;;;;4969262;28;20077;-73
2021/12/21 03:33:56;;;;;;;10.27;6.22;;;4.50;81.30;;;;;;4974072;28;20059;-73
2021/12/21 03:36:21;;;;;;;10.75;6.03;;;4.50;81.40;;;;;;4973057;28;20077;-73
2021/12/21 03:38:56;;;;;;;8.90;5.45;;;4.40;81.50;;;;;;4973341;28;20023;-73
2021/12/21 03:41:24;;;;;;;9.27;5.72;;;4.50;81.70;;;;;;4972928;28;20608;-74
2021/12/21 03:43:50;;;;;;;10.82;5.82;;;4.60;81.80;;;;;;4973129;28;20129;-73
2021/12/21 03:46:16;;;;;;;9.68;5.78;;;4.50;81.80;;;;;;4969687;28;20461;-73
2021/12/21 03:48:47;;;;;;;10.40;6.07;;;4.50;81.80;;;;;;4973233;28;20026;-73
2021/12/21 03:51:15;;;;;;;9.57;5.85;;;4.40;81.40;;;;;;4939111;28;20035;-73
2021/12/21 03:53:42;;;;;;;9.35;5.60;;;4.40;81.80;;;;;;4937852;28;20492;-73
2021/12/21 03:58:33;;;;;;;8.82;5.88;;;4.40;81.90;;;;;;4936327;28;20085;-73
2021/12/21 04:00:59;;;;;;;11.05;6.63;;;4.40;81.90;;;;;;4938735;29;20043;-74
2021/12/21 04:03:25;;;;;;;10.63;6.05;;;4.40;82.10;;;;;;4938852;28;20055;-73
2021/12/21 04:05:51;;;;;;;10.68;6.13;;;4.40;82.00;;;;;;4939079;28;20031;-73
2021/12/21 04:08:16;;;;;;;11.23;6.75;;;4.40;82.20;;;;;;4947624;28;20024;-73
2021/12/21 04:10:42;;;;;;;10.05;5.72;;;4.50;82.20;;;;;;4949191;29;20454;-73
2021/12/21 04:13:10;;;;;;;10.13;5.72;;;4.50;82.10;;;;;;4948957;28;20027;-73
2021/12/21 04:15:42;;;;;;;9.63;5.57;;;4.50;82.40;;;;;;4946512;28;20020;-74
2021/12/21 04:18:12;;;;;;;10.40;5.80;;;4.50;82.50;;;;;;4944107;28;20027;-73
2021/12/21 04:20:39;;;;;;;10.30;5.95;;;4.50;82.00;;;;;;4938718;28;20046;-74
2021/12/21 04:23:05;;;;;;;10.73;5.97;;;4.50;82.40;;;;;;4933934;28;20404;-74
2021/12/21 04:25:31;;;;;;;10.98;6.07;;;4.60;82.00;;;;;;4935788;28;20024;-73
2021/12/21 04:27:57;;;;;;;10.18;5.75;;;4.50;82.10;;;;;;4937423;28;20028;-74
2021/12/21 04:30:24;;;;;;;9.07;5.28;;;4.60;82.20;;;;;;4942833;28;20024;-74
2021/12/21 04:32:49;;;;;;;9.40;5.43;;;4.50;82.00;;;;;;4941127;28;20104;-74
2021/12/21 04:35:19;;;;;;;8.18;4.93;;;4.60;82.30;;;;;;4947867;28;20520;-73
2021/12/21 04:37:54;;;;;;;8.68;5.03;;;4.50;82.20;;;;;;4949408;28;20093;-74
2021/12/21 04:40:22;;;;;;;9.02;5.10;;;4.60;82.10;;;;;;4948406;28;20032;-74
2021/12/21 04:42:48;;;;;;;8.98;5.15;;;4.50;81.90;;;;;;4938712;28;20512;-73
2021/12/21 04:45:13;;;;;;;9.63;5.45;;;4.50;81.90;;;;;;4940020;28;20114;-73
2021/12/21 04:47:39;;;;;;;9.57;5.75;;;4.50;81.80;;;;;;4945879;28;20114;-74
2021/12/21 04:50:05;;;;;;;11.02;5.70;;;4.50;81.90;;;;;;4949083;28;20023;-73
2021/12/21 04:52:31;;;;;;;10.05;5.65;;;4.40;81.60;;;;;;4948649;28;20063;-73
2021/12/21 04:54:56;;;;;;;9.27;4.88;;;4.50;82.00;;;;;;4938393;28;20113;-74
2021/12/21 04:57:22;;;;;;;8.85;5.00;;;4.60;82.30;;;;;;4937927;29;20070;-73
2021/12/21 04:59:48;;;;;;;10.68;5.72;;;4.50;82.20;;;;;;4938071;28;20493;-73
2021/12/21 05:02:14;;;;;;;11.25;5.95;;;4.50;82.00;;;;;;4935073;28;20047;-74
2021/12/21 05:04:39;;;;;;;9.73;5.35;;;4.50;81.80;;;;;;4948492;28;20031;-73
2021/12/21 05:07:06;;;;;;;8.85;5.20;;;4.50;82.20;;;;;;4948229;28;20114;-73
2021/12/21 05:09:40;;;;;;;8.93;5.28;;;4.60;82.30;;;;;;4938661;28;20047;-74
2021/12/21 05:12:08;;;;;;;9.07;5.30;;;4.60;82.00;;;;;;4952643;28;20031;-74
2021/12/21 05:14:33;;;;;;;10.07;5.43;;;4.50;82.50;;;;;;4935825;28;20027;-74
2021/12/21 05:17:00;;;;;;;8.80;5.07;;;4.50;81.70;;;;;;4949172;28;20027;-74
2021/12/21 05:19:25;;;;;;;11.82;5.55;;;4.40;81.60;;;;;;4947013;28;20067;-73
2021/12/21 05:21:51;;;;;;;8.63;5.13;;;4.50;81.80;;;;;;4937938;29;20047;-74
2021/12/21 05:24:17;;;;;;;10.13;5.55;;;4.40;81.90;;;;;;4940853;28;20027;-73
2021/12/21 05:26:43;;;;;;;9.88;5.68;;;4.40;81.70;;;;;;4945355;28;20043;-73
2021/12/21 05:29:08;;;;;;;9.85;5.30;;;4.40;81.70;;;;;;4948597;28;20575;-73
2021/12/21 05:31:34;;;;;;;10.98;5.57;;;4.40;82.20;;;;;;4935168;28;20036;-73
2021/12/21 05:34:00;;;;;;;9.73;5.57;;;4.40;82.10;;;;;;4937544;28;20024;-73
2021/12/21 05:36:25;;;;;;;8.75;4.95;;;4.40;82.00;;;;;;4941925;28;20039;-73
2021/12/21 05:38:56;;;;;;;9.55;5.10;;;4.50;81.80;;;;;;4944788;29;20079;-73
2021/12/21 05:41:28;;;;;;;11.68;6.00;;;4.30;81.60;;;;;;4948706;28;20034;-73
2021/12/21 05:43:54;;;;;;;8.45;4.75;;;4.30;82.10;;;;;;4934271;29;20024;-73
2021/12/21 05:46:20;;;;;;;8.68;5.03;;;4.30;81.70;;;;;;4947663;28;20035;-74
2021/12/21 05:48:48;;;;;;;8.90;4.93;;;4.30;81.60;;;;;;4946421;28;20022;-73
2021/12/21 05:51:14;;;;;;;9.25;5.40;;;4.30;81.60;;;;;;4949181;28;20037;-74
2021/12/21 05:53:39;;;;;;;8.68;4.80;;;4.30;82.10;;;;;;4944946;28;20501;-73
2021/12/21 05:56:05;;;;;;;9.93;5.75;;;4.40;83.20;;;;;;4947922;28;20034;-73
2021/12/21 05:58:31;;;;;;;11.23;6.00;;;4.30;81.30;;;;;;4947803;28;20038;-73
2021/12/21 06:00:56;;;;;;;10.85;6.00;;;4.20;81.40;;;;;;4949379;28;20027;-74
2021/12/21 06:03:22;;;;;;;9.82;5.30;;;4.20;81.70;;;;;;4939402;28;20130;-74
2021/12/21 06:05:48;;;;;;;9.20;5.22;;;4.20;81.40;;;;;;4936402;28;20023;-74
2021/12/21 06:08:13;;;;;;;11.07;5.95;;;4.20;81.50;;;;;;4948032;28;20035;-74
2021/12/21 06:10:41;;;;;;;10.45;5.90;;;4.20;81.50;;;;;;4934085;28;20055;-74
2021/12/21 06:26:17;;;;;;;9.35;4.78;;;4.10;81.70;;;;;;4947942;28;20023;-73
2021/12/21 06:28:45;;;;;;;9.40;5.00;;;4.10;81.60;;;;;;4933504;28;20024;-74
2021/12/21 06:31:11;;;;;;;10.13;5.35;;;4.10;81.60;;;;;;4944018;28;20077;-73
2021/12/21 06:33:36;;;;;;;7.53;4.45;;;4.20;81.30;;;;;;4936466;28;20023;-74
2021/12/21 06:36:03;;;;;;;9.18;5.03;;;4.00;81.20;;;;;;4938010;28;20023;-74
2021/12/21 06:38:29;;;;;;;9.27;5.00;;;4.00;81.30;;;;;;4944331;28;20024;-74
2021/12/21 06:40:55;;;;;;;9.07;5.38;;;3.90;81.30;;;;;;4947886;28;20046;-74
2021/12/21 06:43:21;;;;;;;10.27;5.18;;;3.90;81.20;;;;;;4935900;29;20040;-73
2021/12/21 06:45:57;;;;;;;9.10;4.88;;;3.90;81.90;;;;;;4944006;28;20046;-74
2021/12/21 06:53:41;;;;;;;10.48;5.30;;;3.90;81.30;;;;;;4944225;28;20046;-74
2021/12/21 06:56:08;;;;;;;9.00;4.60;;;3.80;81.50;;;;;;4949957;28;20042;-74
2021/12/21 06:58:34;;;;;;;7.47;4.28;;;3.90;81.90;;;;;;4937644;28;20031;-74
2021/12/21 07:01:01;;;;;;;10.68;5.28;;;4.00;81.90;;;;;;4949511;28;20484;-74
2021/12/21 07:03:27;;;;;;;8.43;4.93;;;3.90;81.40;;;;;;4947553;28;20043;-74
2021/12/21 07:05:53;;;;;;;8.98;4.55;;;3.90;81.80;;;;;;4947118;29;20035;-74
2021/12/21 07:08:28;;;;;;;8.57;4.72;;;3.90;81.40;;;;;;4948552;28;20082;-74
2021/12/21 07:11:08;;;;;;;9.35;5.00;;;3.90;82.40;;;;;;4936694;28;20109;-74
2021/12/21 07:19:03;;;;;;;9.98;5.20;;;3.90;81.50;;;;;;4949381;28;20038;-74
2021/12/21 07:21:28;;;;;;;9.07;4.78;;;3.80;81.20;;;;;;4944935;28;20028;-74
2021/12/21 07:23:54;;;;;;;10.15;5.22;;;3.80;81.50;;;;;;4943353;28;20507;-74
2021/12/21 07:26:19;;;;;;;9.80;5.40;;;3.80;81.20;;;;;;4948185;28;20039;-74
2021/12/21 07:28:45;;;;;;;8.77;4.63;;;3.80;81.70;;;;;;4950879;28;20414;-74
2021/12/21 07:31:11;;;;;;;8.23;4.30;;;3.80;81.40;;;;;;4938896;29;20039;-74
2021/12/21 07:33:37;;;;;;;9.93;4.97;;;3.70;81.50;;;;;;4945407;28;20115;-74
2021/12/21 07:36:03;;;;;;;9.20;5.07;;;3.70;81.30;;;;;;4945371;29;20076;-74
2021/12/21 07:38:30;;;;;;;11.05;5.50;;;3.70;81.50;;;;;;4936619;28;20106;-74
2021/12/21 07:41:00;;;;;;;9.73;5.03;;;3.70;81.50;;;;;;4951266;28;20028;-74
2021/12/21 07:43:26;;;;;;;9.82;5.50;;;3.80;81.90;;;;;;4949635;28;20035;-74
2021/12/21 07:45:52;;;;;;;9.90;5.43;;;3.70;81.60;;;;;;4947333;28;20038;-74
2021/12/21 07:48:18;;;;;;;9.95;5.05;;;3.80;81.60;;;;;;4946552;28;20114;-74
2021/12/21 07:50:46;;;;;;;7.80;4.70;;;3.60;81.30;;;;;;4946804;28;20075;-74
2021/12/21 07:53:13;;;;;;;8.95;5.43;;;3.60;81.50;;;;;;4949945;29;20035;-75
2021/12/21 07:55:39;;;;;;;8.57;4.60;;;3.60;81.50;;;;;;4935779;28;20507;-75
2021/12/21 07:58:05;;;;;;;11.68;5.47;;;3.60;81.50;;;;;;4938560;29;20110;-75
2021/12/21 08:00:30;;;;;;;9.52;4.93;;;3.50;81.60;;;;;;4938914;28;20032;-75
2021/12/21 08:02:57;;;;;;;9.30;4.93;;;3.60;81.90;;;;;;4939363;28;20100;-74
2021/12/21 08:05:23;;;;;;;7.68;4.60;;;3.60;82.00;;;;;;4949819;28;20024;-74
2021/12/21 08:07:56;;;;;;;9.18;5.15;;;3.70;82.40;;;;;;4933753;28;20058;-74
2021/12/21 08:10:29;;;;;;;7.70;4.63;;;3.90;82.30;;;;;;4980165;28;20130;-74
2021/12/21 08:12:56;;;;;;;8.77;4.88;;;4.00;82.40;;;;;;4939423;28;20036;-74
2021/12/21 08:15:24;;;;;;;9.80;5.32;;;4.10;82.00;;;;;;4938523;29;20027;-74
2021/12/21 08:17:49;;;;;;;11.18;5.88;;;4.30;81.70;;;;;;4938191;28;20024;-74
2021/12/21 08:20:16;;;;;;;9.60;5.28;;;4.40;81.80;;;;;;4947984;28;20032;-74
2021/12/21 08:22:41;;;;;;;10.18;5.20;;;4.70;81.60;;;;;;4980657;28;20408;-74
2021/12/21 08:25:08;;;;;;;10.15;5.43;;;4.90;82.20;;;;;;4937933;28;20023;-74
2021/12/21 08:27:34;;;;;;;8.85;5.20;;;5.10;81.40;;;;;;4944360;28;20028;-75
2021/12/21 08:30:00;;;;;;;9.52;5.15;;;5.30;80.80;;;;;;4945065;28;20034;-74
2021/12/21 08:32:25;;;;;;;9.80;5.75;;;5.50;80.00;;;;;;4935346;28;20046;-75
2021/12/21 08:34:51;;;;;;;10.60;5.63;;;5.60;79.70;;;;;;4949622;28;20519;-75
2021/12/21 08:37:17;;;;;;;8.95;5.45;;;5.90;79.70;;;;;;4950983;28;20032;-75
2021/12/21 08:39:42;;;;;;;10.38;6.22;;;6.20;79.30;;;;;;4945916;28;20030;-75
2021/12/21 08:42:13;;;;;;;11.45;6.72;;;6.50;79.30;;;;;;4943771;28;20460;-75
2021/12/21 08:44:44;;;;;;;9.27;5.88;;;6.50;77.90;;;;;;4936549;28;20023;-75
2021/12/21 08:47:10;;;;;;;10.45;5.95;;;6.80;78.00;;;;;;4947945;28;20517;-75
2021/12/21 08:49:36;;;;;;;11.18;6.45;;;7.00;77.20;;;;;;4940295;28;20039;-76
2021/12/21 08:52:01;;;;;;;11.00;6.07;;;7.30;77.00;;;;;;4947817;28;20074;-76
2021/12/21 08:54:27;;;;;;;11.60;6.70;;;7.60;78.20;;;;;;4945917;29;20501;-75
2021/12/21 08:56:53;;;;;;;9.52;6.10;;;7.70;75.50;;;;;;4951312;28;20032;-76
2021/12/21 08:59:19;;;;;;;10.55;6.60;;;8.00;75.40;;;;;;4946879;28;20492;-76
2021/12/21 09:01:46;;;;;;;11.85;6.70;;;8.20;74.80;;;;;;4948771;28;20047;-76
2021/12/21 09:04:14;;;;;;;12.60;6.85;;;8.40;74.50;;;;;;4946870;28;20145;-75
2021/12/21 09:06:40;;;;;;;11.18;6.88;;;8.40;72.70;;;;;;4939221;28;20102;-73
2021/12/21 09:09:06;;;;;;;11.23;6.70;;;8.60;73.10;;;;;;4937268;28;20567;-73
2021/12/21 09:11:32;;;;;;;11.20;6.72;;;8.80;72.60;;;;;;4945496;28;20103;-68
2021/12/21 09:13:57;;;;;;;11.32;7.22;;;9.00;72.40;;;;;;4950276;28;20050;-67
2021/12/21 09:16:23;;;;;;;13.23;7.28;;;8.70;69.10;;;;;;4949496;28;20019;-67
2021/12/21 09:18:49;;;;;;;12.35;6.75;;;8.60;70.20;;;;;;4949168;28;20038;-67
2021/12/21 09:21:14;;;;;;;12.10;7.18;;;8.20;67.80;;;;;;4949630;28;20083;-67
2021/12/21 09:23:40;;;;;;;12.48;7.15;;;8.10;70.00;;;;;;4948592;28;20479;-68
2021/12/21 09:26:06;;;;;;;11.80;6.85;;;8.00;70.50;;;;;;4950019;28;20023;-68
2021/12/21 09:28:32;;;;;;;13.25;7.43;;;8.20;71.60;;;;;;4950358;28;20082;-64
2021/12/21 09:30:58;;;;;;;12.43;7.63;;;8.50;72.80;;;;;;4937711;29;20473;-64
2021/12/21 09:33:24;;;;;;;10.75;6.63;;;8.70;70.90;;;;;;4940154;29;20027;-65
2021/12/21 09:35:52;;;;;;;9.98;6.70;;;8.70;70.80;;;;;;4937229;28;20090;-65
2021/12/21 09:38:18;;;;;;;14.05;7.13;;;8.80;70.80;;;;;;4942080;28;20047;-65
2021/12/21 09:40:43;;;;;;;13.30;6.95;;;8.80;68.30;;;;;;4945986;28;20082;-65
2021/12/21 09:43:11;;;;;;;11.45;6.82;;;8.90;69.50;;;;;;4978328;28;20553;-65
2021/12/21 09:45:38;;;;;;;11.60;7.30;;;9.00;69.30;;;;;;4939160;28;20373;-63
2021/12/21 09:48:04;;;;;;;11.75;6.32;;;9.20;69.70;;;;;;4938934;28;20024;-64
2021/12/21 09:50:31;;;;;;;9.57;6.40;;;9.40;68.50;;;;;;4944916;28;20024;-64
2021/12/21 09:52:57;;;;;;;11.73;6.22;;;9.50;69.20;;;;;;4945859;28;20040;-64
2021/12/21 09:55:24;;;;;;;9.65;6.13;;;9.60;66.60;;;;;;4935374;29;20034;-63
2021/12/21 09:57:52;;;;;;;11.85;6.13;;;9.60;67.10;;;;;;4940251;28;20033;-67
2021/12/21 10:00:35;;;;;;;10.30;6.63;;;9.80;66.90;;;;;;4942893;28;20023;-66
2021/12/21 10:03:07;;;;;;;10.25;6.78;;;9.70;67.10;;;;;;4945168;28;20117;-66
2021/12/21 10:05:39;;;;;;;12.27;7.00;;;9.80;66.40;;;;;;4944100;28;20132;-66
2021/12/21 10:08:12;;;;;;;10.63;7.25;;;10.00;65.40;;;;;;4947027;28;20023;-66
2021/12/21 10:10:51;;;;;;;11.02;7.25;;;10.00;64.20;;;;;;4945282;28;20424;-67
2021/12/21 10:13:24;;;;;;;11.82;7.00;;;9.60;63.20;;;;;;4935506;28;20050;-67
2021/12/21 10:16:02;;;;;;;14.30;7.60;;;9.50;63.30;;;;;;4944442;28;20039;-67
2021/12/21 10:18:30;;;;;;;11.52;7.05;;;9.50;64.70;;;;;;4943735;28;20055;-65
2021/12/21 10:21:00;;;;;;;12.32;7.00;;;9.60;63.80;;;;;;4974138;28;20035;-65
2021/12/21 10:23:31;;;;;;;11.27;7.13;;;9.80;62.90;;;;;;4936035;28;20023;-65
2021/12/21 10:25:57;;;;;;;11.23;7.32;;;9.90;63.70;;;;;;4932331;28;20066;-65
2021/12/21 10:28:30;;;;;;;10.20;7.13;;;9.80;62.80;;;;;;4934696;29;20063;-65
2021/12/21 10:30:57;;;;;;;10.82;6.60;;;9.90;63.70;;;;;;4941219;29;20027;-66
2021/12/21 10:33:25;;;;;;;10.02;6.80;;;9.80;62.80;;;;;;4936410;28;20078;-67
2021/12/21 10:35:56;;;;;;;14.40;7.63;;;10.20;64.60;;;;;;4936015;28;20386;-67
2021/12/21 10:38:37;;;;;;;12.30;6.80;;;10.20;62.80;;;;;;4946626;28;20078;-66
2021/12/21 10:41:10;;;;;;;9.88;6.60;;;10.50;62.30;;;;;;4932669;28;20027;-67
2021/12/21 10:43:35;;;;;;;9.18;6.35;;;10.70;62.10;;;;;;4946983;28;20149;-68
2021/12/21 10:46:02;;;;;;;12.63;7.45;;;10.90;61.80;;;;;;4935751;29;20066;-68
2021/12/21 10:48:30;;;;;;;11.52;6.60;;;10.50;58.70;;;;;;4935572;28;20023;-68
2021/12/21 10:50:56;;;;;;;11.43;6.97;;;10.60;61.60;;;;;;4939331;28;20355;-68
2021/12/21 10:53:26;;;;;;;11.63;6.97;;;10.60;57.10;;;;;;4940940;28;20036;-67
2021/12/21 10:56:07;;;;;;;9.52;6.28;;;10.50;61.80;;;;;;4933286;28;20043;-66
2021/12/21 10:58:37;;;;;;;9.68;6.20;;;10.70;60.60;;;;;;4943246;28;20035;-67
2021/12/21 11:01:06;;;;;;;10.15;6.80;;;10.80;60.70;;;;;;4947548;28;20510;-66
2021/12/21 11:03:37;;;;;;;10.45;6.70;;;10.70;57.40;;;;;;4943450;28;20030;-67
2021/12/21 11:06:12;;;;;;;11.25;6.95;;;10.90;61.50;;;;;;4940607;28;20032;-66
2021/12/21 11:08:40;;;;;;;12.07;6.90;;;11.20;57.70;;;;;;4934776;28;20028;-66
2021/12/21 11:11:10;;;;;;;11.18;6.50;;;11.10;58.80;;;;;;4936645;28;20035;-66
2021/12/21 11:13:40;;;;;;;8.98;6.28;;;11.00;59.00;;;;;;4946564;28;20030;-67
2021/12/21 11:16:07;;;;;;;10.98;6.82;;;11.20;59.50;;;;;;4935141;29;20031;-63
2021/12/21 11:18:37;;;;;;;9.77;6.55;;;11.50;59.20;;;;;;4938885;28;20035;-66
2021/12/21 11:21:06;;;;;;;10.85;6.82;;;11.70;59.50;;;;;;4941736;28;20396;-66
2021/12/21 11:23:33;;;;;;;10.13;6.72;;;12.00;56.90;;;;;;4935926;28;20047;-64
2021/12/21 11:26:00;;;;;;;9.73;6.38;;;11.80;56.40;;;;;;4932072;28;20035;-64
2021/12/21 11:28:35;;;;;;;11.15;7.18;;;12.10;59.10;;;;;;4948576;28;20024;-65
2021/12/21 11:31:02;;;;;;;10.27;6.25;;;12.30;55.40;;;;;;4948958;28;20043;-64
2021/12/21 11:33:34;;;;;;;8.23;5.82;;;11.90;53.80;;;;;;4943883;28;20023;-65
2021/12/21 11:38:47;;;;;;;9.52;6.18;;;11.10;55.70;;;;;;4943438;28;20027;-64
2021/12/21 11:41:13;;;;;;;9.05;6.10;;;11.20;57.00;;;;;;4946580;28;20031;-66
2021/12/21 11:44:03;;;;;;;10.00;6.25;;;11.10;56.60;;;;;;4949655;28;20045;-66
2021/12/21 11:46:39;;;;;;;8.73;5.90;;;11.80;58.90;;;;;;4949493;28;20138;-64
2021/12/21 11:49:17;;;;;;;7.28;5.40;;;11.40;55.90;;;;;;4948921;28;20027;-63
2021/12/21 11:51:43;;;;;;;8.75;5.60;;;11.70;59.30;;;;;;4939678;28;20044;-63
2021/12/21 11:54:18;;;;;;;8.77;5.50;;;12.10;57.10;;;;;;4938471;28;20485;-63
2021/12/21 11:56:44;;;;;;;10.40;6.45;;;12.40;57.40;;;;;;4937957;28;20038;-63
2021/12/21 11:59:10;;;;;;;9.55;6.82;;;12.40;55.10;;;;;;4949191;28;20027;-64
2021/12/21 12:01:35;;;;;;;9.82;6.28;;;12.30;54.20;;;;;;4936315;28;20034;-64
2021/12/21 12:04:06;;;;;;;10.02;6.13;;;12.60;56.50;;;;;;4945624;28;20051;-64
2021/12/21 12:06:49;;;;;;;8.60;6.15;;;12.60;54.40;;;;;;4941311;28;20015;-64
2021/12/21 12:09:29;;;;;;;9.20;5.70;;;12.50;55.00;;;;;;4941372;28;20055;-64
2021/12/21 12:12:05;;;;;;;9.18;5.53;;;12.30;54.60;;;;;;4936937;28;20126;-64
2021/12/21 12:14:30;;;;;;;9.50;6.80;;;12.10;54.30;;;;;;4974353;28;20035;-64
2021/12/21 12:17:02;;;;;;;8.95;6.15;;;11.80;54.30;;;;;;4936220;28;20089;-64
2021/12/21 12:19:33;;;;;;;10.65;6.22;;;11.60;54.20;;;;;;4936788;28;20024;-64
2021/12/21 12:22:01;;;;;;;8.23;5.60;;;11.70;54.70;;;;;;4979022;28;20514;-64
2021/12/21 12:24:35;;;;;;;7.40;5.03;;;11.70;54.10;;;;;;4946284;28;20480;-64
2021/12/21 12:27:14;;;;;;;7.38;4.53;;;11.70;54.40;;;;;;4946301;29;20029;-64
2021/12/21 12:29:58;;;;;;;7.97;5.05;;;11.90;56.70;;;;;;4944986;28;20397;-64
2021/12/21 12:32:35;;;;;;;10.32;6.13;;;11.90;54.20;;;;;;4939081;28;20036;-64
2021/12/21 12:35:08;;;;;;;6.47;5.07;;;11.60;54.60;;;;;;4943134;29;20034;-64
2021/12/21 12:37:46;;;;;;;7.30;5.03;;;11.60;55.40;;;;;;4942447;28;20090;-63
2021/12/21 12:40:14;;;;;;;7.43;4.80;;;11.90;55.60;;;;;;4949892;28;20107;-64
2021/12/21 12:42:40;;;;;;;6.63;4.65;;;12.50;55.00;;;;;;4940066;28;20431;-64
2021/12/21 12:45:13;;;;;;;7.53;5.13;;;12.40;55.40;;;;;;4937769;28;20063;-64
2021/12/21 12:47:47;;;;;;;7.07;4.88;;;12.50;54.60;;;;;;4938015;29;20015;-64
2021/12/21 12:50:24;;;;;;;6.85;5.00;;;12.20;53.60;;;;;;4935340;29;20038;-64
2021/12/21 12:52:59;;;;;;;6.88;4.63;;;12.30;54.50;;;;;;4949486;28;20032;-64
2021/12/21 12:55:40;;;;;;;7.53;5.15;;;12.10;51.80;;;;;;4948451;28;20027;-61
2021/12/21 12:58:14;;;;;;;6.18;4.53;;;11.80;54.00;;;;;;4939369;28;20038;-61
2021/12/21 13:00:44;;;;;;;8.52;5.07;;;11.80;54.10;;;;;;4943316;28;20027;-61
2021/12/21 13:03:11;;;;;;;6.60;5.22;;;12.10;55.00;;;;;;4944764;29;20036;-61
2021/12/21 13:05:44;;;;;;;8.98;5.63;;;12.10;53.20;;;;;;4951080;28;20065;-62
2021/12/21 13:08:14;;;;;;;;;;;12.00;52.70;;;;;;4934354;28;20032;-61
2021/12/21 13:10:47;;;;;;;8.75;4.78;;;12.00;52.50;;;;;;4947702;28;19964;-61
2021/12/21 13:13:14;;;;;;;6.88;4.90;;;11.10;52.70;;;;;;4947408;29;20038;-61
2021/12/21 13:15:42;;;;;;;7.18;5.07;;;11.10;55.30;;;;;;4945225;28;20419;-61
2021/12/21 13:18:13;;;;;;;6.68;4.75;;;11.00;54.90;;;;;;4941516;28;20067;-61
2021/12/21 13:20:40;;;;;;;8.77;5.15;;;11.00;55.60;;;;;;4935997;28;20027;-61
2021/12/21 13:23:14;;;;;;;6.95;4.78;;;11.00;56.70;;;;;;4935355;29;20035;-61
2021/12/21 13:25:40;;;;;;;8.45;5.38;;;10.80;55.20;;;;;;4934269;28;20140;-61
2021/12/21 13:28:13;;;;;;;9.40;4.90;;;10.80;54.30;;;;;;4936574;29;20059;-61
2021/12/21 13:30:47;;;;;;;8.13;5.40;;;10.70;56.50;;;;;;4943420;28;20495;-61
2021/12/21 13:33:24;;;;;;;8.23;5.10;;;11.00;57.20;;;;;;4940608;28;20040;-61
2021/12/21 13:35:52;;;;;;;9.25;4.88;;;10.80;55.20;;;;;;4943903;28;20020;-61
2021/12/21 13:38:19;;;;;;;9.30;5.38;;;10.60;55.50;;;;;;4942081;28;20034;-61
2021/12/21 13:40:58;;;;;;;7.38;4.90;;;10.50;55.90;;;;;;4978873;28;20047;-61
2021/12/21 13:43:24;;;;;;;7.90;5.28;;;10.50;57.40;;;;;;4947407;28;20027;-61
2021/12/21 13:45:57;;;;;;;8.15;5.57;;;10.40;55.40;;;;;;4936499;29;20039;-61
2021/12/21 13:48:23;;;;;;;;;;;10.10;56.50;;;;;;4937288;28;20070;-61
2021/12/21 13:50:49;;;;;;;6.80;4.97;;;10.50;59.00;;;;;;4936633;28;19914;-61
2021/12/21 13:53:19;;;;;;;7.72;4.70;;;10.60;56.80;;;;;;4934940;28;20461;-60
2021/12/21 13:55:48;;;;;;;8.65;5.30;;;10.80;57.20;;;;;;4932961;29;20453;-61
2021/12/21 13:58:14;;;;;;;9.23;5.90;;;10.60;56.40;;;;;;4946810;29;20030;-60
2021/12/21 14:00:46;;;;;;;7.75;5.30;;;10.40;54.90;;;;;;4936859;28;20031;-60
2021/12/21 14:03:33;;;;;;;9.32;5.65;;;10.70;59.30;;;;;;4939455;29;20026;-60
2021/12/21 14:06:10;;;;;;;10.55;5.65;;;11.30;56.20;;;;;;4941437;29;20028;-60